Time;durP1;ratioP1;P1;durP2;ratioP2;P2;SDS_P1;SDS_P2;PMS_P1;PMS_P2;Temp;Humidity;BMP_temperature;BMP_pressure;BME280_temperature;BME280_humidity;BME280_pressure;Samples;Min_cycle;Max_cycle;Signal;HPM_P1;HPM_P2
2024/02/17 00:02:03;;;;;;;8.00;5.22;;;;;;;;;;5029645;28;20036;-63
2024/02/17 00:04:29;;;;;;;10.38;5.30;;;;;;;;;;5030589;28;20057;-63
2024/02/17 00:06:55;;;;;;;8.57;4.97;;;;;;;;;;5032988;28;20037;-63
2024/02/17 00:09:22;;;;;;;9.50;4.82;;;;;;;;;;5032932;28;20042;-64
2024/02/17 00:11:48;;;;;;;8.07;4.72;;;;;;;;;;5030142;28;20125;-63
2024/02/17 00:14:14;;;;;;;11.88;5.35;;;;;;;;;;5035626;28;20050;-63
2024/02/17 00:16:41;;;;;;;9.13;5.00;;;;;;;;;;5035896;28;20040;-63
2024/02/17 00:19:07;;;;;;;9.15;5.35;;;;;;;;;;5036765;28;20040;-64
2024/02/17 00:21:33;;;;;;;9.88;4.75;;;;;;;;;;5027843;28;20033;-63
2024/02/17 00:23:59;;;;;;;13.10;6.22;;;;;;;;;;5025256;28;20056;-63
2024/02/17 00:26:26;;;;;;;13.13;5.38;;;;;;;;;;5027734;28;20068;-63
2024/02/17 00:28:52;;;;;;;10.48;4.93;;;;;;;;;;5030142;28;20524;-64
2024/02/17 00:31:18;;;;;;;12.68;6.05;;;;;;;;;;5025825;28;20041;-64
2024/02/17 00:33:44;;;;;;;15.27;5.60;;;;;;;;;;5029945;28;20052;-63
2024/02/17 00:36:11;;;;;;;10.85;5.90;;;;;;;;;;5030115;28;20044;-64
2024/02/17 00:38:37;;;;;;;10.80;5.70;;;;;;;;;;5029116;28;20165;-63
2024/02/17 00:41:06;;;;;;;10.80;5.80;;;;;;;;;;5025736;28;20048;-63
2024/02/17 00:43:35;;;;;;;9.85;6.43;;;;;;;;;;5028846;28;20037;-63
2024/02/17 00:46:02;;;;;;;12.00;6.22;;;;;;;;;;5028408;28;20277;-64
2024/02/17 00:48:28;;;;;;;15.13;6.90;;;;;;;;;;5030432;28;20037;-63
2024/02/17 00:50:54;;;;;;;12.25;5.78;;;;;;;;;;5032715;28;20049;-63
2024/02/17 00:53:21;;;;;;;10.00;5.80;;;;;;;;;;5032159;28;20509;-63
2024/02/17 00:55:47;;;;;;;16.40;6.80;;;;;;;;;;5031612;28;20049;-63
2024/02/17 00:58:13;;;;;;;11.60;5.72;;;;;;;;;;5032626;28;20504;-63
2024/02/17 01:00:39;;;;;;;12.85;6.03;;;;;;;;;;5029512;28;20045;-64
2024/02/17 01:03:05;;;;;;;10.93;6.03;;;;;;;;;;5028643;28;20041;-63
2024/02/17 01:05:31;;;;;;;10.82;5.53;;;;;;;;;;5029535;28;20042;-63
2024/02/17 01:07:57;;;;;;;11.30;5.75;;;;;;;;;;5026913;28;20060;-63
2024/02/17 01:10:23;;;;;;;11.38;5.72;;;;;;;;;;5030735;28;20048;-63
2024/02/17 01:12:49;;;;;;;12.65;5.88;;;;;;;;;;5033866;28;20052;-63
2024/02/17 01:15:16;;;;;;;11.23;5.93;;;;;;;;;;5038373;28;20056;-63
2024/02/17 01:17:42;;;;;;;10.90;5.53;;;;;;;;;;5035347;28;20049;-63
2024/02/17 01:20:08;;;;;;;10.38;6.50;;;;;;;;;;5063497;28;20566;-63
2024/02/17 01:22:34;;;;;;;10.25;5.45;;;;;;;;;;5035974;28;20033;-63
2024/02/17 01:25:00;;;;;;;12.32;5.55;;;;;;;;;;5035935;28;20045;-63
2024/02/17 01:27:27;;;;;;;9.30;4.90;;;;;;;;;;5032985;28;20045;-63
2024/02/17 01:29:53;;;;;;;11.77;6.20;;;;;;;;;;5031152;28;20049;-63
2024/02/17 01:32:19;;;;;;;10.82;5.30;;;;;;;;;;5047981;28;20041;-63
2024/02/17 01:34:45;;;;;;;10.20;5.20;;;;;;;;;;5032541;28;20053;-63
2024/02/17 01:37:11;;;;;;;9.20;5.70;;;;;;;;;;5033200;28;20048;-63
2024/02/17 01:39:37;;;;;;;8.80;4.63;;;;;;;;;;5035591;28;20059;-63
2024/02/17 01:42:03;;;;;;;9.73;5.15;;;;;;;;;;5041536;28;20051;-62
2024/02/17 01:44:30;;;;;;;7.60;4.38;;;;;;;;;;5032061;28;20037;-62
2024/02/17 01:46:56;;;;;;;8.90;5.55;;;;;;;;;;5041410;28;20049;-63
2024/02/17 01:49:23;;;;;;;7.13;4.45;;;;;;;;;;5030583;28;20052;-62
2024/02/17 01:51:49;;;;;;;7.65;4.07;;;;;;;;;;5033873;28;20053;-62
2024/02/17 01:54:17;;;;;;;5.75;3.65;;;;;;;;;;5038943;28;20049;-62
2024/02/17 01:56:45;;;;;;;7.20;3.80;;;;;;;;;;5035639;28;20037;-63
2024/02/17 01:59:11;;;;;;;6.43;3.47;;;;;;;;;;5025278;28;20060;-63
2024/02/17 02:01:37;;;;;;;7.28;3.30;;;;;;;;;;5022304;28;20048;-63
2024/02/17 02:04:04;;;;;;;7.00;3.40;;;;;;;;;;5027375;28;20045;-63
2024/02/17 02:06:30;;;;;;;5.65;2.85;;;;;;;;;;5031472;28;20034;-62
2024/02/17 02:08:57;;;;;;;7.90;2.92;;;;;;;;;;5028431;28;20041;-62
2024/02/17 02:11:23;;;;;;;6.35;3.67;;;;;;;;;;5035674;28;20536;-63
2024/02/17 02:13:49;;;;;;;5.45;2.80;;;;;;;;;;5035230;28;20048;-63
2024/02/17 02:16:16;;;;;;;5.70;2.78;;;;;;;;;;5030615;28;20373;-63
2024/02/17 02:18:42;;;;;;;5.22;2.70;;;;;;;;;;5053882;28;20044;-62
2024/02/17 02:21:08;;;;;;;5.10;2.47;;;;;;;;;;5034004;28;21041;-63
2024/02/17 02:23:35;;;;;;;4.10;2.20;;;;;;;;;;5034788;28;20072;-63
2024/02/17 02:26:01;;;;;;;3.45;2.20;;;;;;;;;;5033349;28;20040;-62
2024/02/17 02:28:27;;;;;;;4.35;2.40;;;;;;;;;;5036687;28;20041;-62
2024/02/17 02:30:57;;;;;;;6.38;2.33;;;;;;;;;;5039244;28;20053;-63
2024/02/17 02:33:23;;;;;;;4.53;2.40;;;;;;;;;;5035404;28;20049;-63
2024/02/17 02:35:49;;;;;;;5.53;2.63;;;;;;;;;;5028635;28;20421;-63
2024/02/17 02:38:16;;;;;;;4.00;2.70;;;;;;;;;;5036275;28;20052;-62
2024/02/17 02:40:42;;;;;;;7.60;2.88;;;;;;;;;;5036257;28;20049;-63
2024/02/17 02:43:08;;;;;;;7.35;2.75;;;;;;;;;;5041441;28;20037;-63
2024/02/17 02:45:34;;;;;;;5.53;2.60;;;;;;;;;;5034012;28;20060;-63
2024/02/17 02:48:00;;;;;;;6.57;2.70;;;;;;;;;;5037702;28;20049;-63
2024/02/17 02:50:26;;;;;;;6.82;2.85;;;;;;;;;;5041900;28;20041;-63
2024/02/17 02:52:53;;;;;;;6.57;2.90;;;;;;;;;;5040886;28;20496;-63
2024/02/17 02:55:19;;;;;;;5.05;3.28;;;;;;;;;;5041022;28;20508;-62
2024/02/17 02:57:45;;;;;;;6.35;3.10;;;;;;;;;;5034116;28;20045;-63
2024/02/17 03:00:11;;;;;;;7.40;3.80;;;;;;;;;;5038341;28;20048;-63
2024/02/17 03:02:37;;;;;;;7.90;4.07;;;;;;;;;;5035169;28;20040;-62
2024/02/17 03:05:04;;;;;;;9.27;4.15;;;;;;;;;;5041358;28;20053;-63
2024/02/17 03:07:30;;;;;;;6.18;3.88;;;;;;;;;;5040266;28;20428;-63
2024/02/17 03:09:56;;;;;;;7.47;3.88;;;;;;;;;;5042775;28;20056;-63
2024/02/17 03:12:22;;;;;;;7.35;4.05;;;;;;;;;;5030960;28;20049;-64
2024/02/17 03:14:48;;;;;;;9.60;4.22;;;;;;;;;;5036670;28;20057;-64
2024/02/17 03:17:16;;;;;;;7.85;3.88;;;;;;;;;;5023592;28;20033;-64
2024/02/17 03:19:43;;;;;;;7.97;4.00;;;;;;;;;;5027177;28;20056;-64
2024/02/17 03:22:09;;;;;;;12.43;4.43;;;;;;;;;;5031989;28;20444;-63
2024/02/17 03:24:35;;;;;;;9.73;4.57;;;;;;;;;;5034611;28;20041;-63
2024/02/17 03:27:01;;;;;;;10.35;4.43;;;;;;;;;;5038917;28;20554;-63
2024/02/17 03:29:27;;;;;;;8.13;4.63;;;;;;;;;;5042951;28;20413;-63
2024/02/17 03:31:53;;;;;;;8.32;4.03;;;;;;;;;;5041749;28;20037;-63
2024/02/17 03:34:19;;;;;;;9.80;4.45;;;;;;;;;;5034827;28;20053;-64
2024/02/17 03:36:45;;;;;;;10.57;4.50;;;;;;;;;;5032314;28;20055;-64
2024/02/17 03:39:12;;;;;;;11.35;5.63;;;;;;;;;;5028749;28;20060;-64
2024/02/17 03:41:38;;;;;;;14.82;6.53;;;;;;;;;;5025755;28;20053;-63
2024/02/17 03:44:04;;;;;;;13.27;6.50;;;;;;;;;;5027145;28;20048;-64
2024/02/17 03:46:31;;;;;;;13.60;6.90;;;;;;;;;;5039871;28;20041;-64
2024/02/17 03:48:57;;;;;;;14.07;7.07;;;;;;;;;;5039940;28;20050;-64
2024/02/17 03:51:23;;;;;;;12.73;6.47;;;;;;;;;;5035304;28;20052;-64
2024/02/17 03:53:49;;;;;;;18.38;8.15;;;;;;;;;;5039653;28;20127;-64
2024/02/17 03:56:16;;;;;;;17.13;7.13;;;;;;;;;;5039164;28;20033;-65
2024/02/17 03:58:42;;;;;;;15.10;7.47;;;;;;;;;;5035588;28;20068;-65
2024/02/17 04:01:08;;;;;;;19.45;8.57;;;;;;;;;;5034270;28;20597;-65
2024/02/17 04:03:34;;;;;;;12.75;7.10;;;;;;;;;;5041181;28;20045;-64
2024/02/17 04:06:02;;;;;;;13.93;7.45;;;;;;;;;;5036297;28;20057;-66
2024/02/17 04:08:28;;;;;;;13.10;6.78;;;;;;;;;;5031053;28;20033;-65
2024/02/17 04:10:57;;;;;;;15.95;7.82;;;;;;;;;;5023239;28;20064;-65
2024/02/17 04:13:24;;;;;;;14.48;6.93;;;;;;;;;;5030125;28;20053;-65
2024/02/17 04:15:50;;;;;;;14.45;7.53;;;;;;;;;;5040978;28;20064;-64
2024/02/17 04:18:17;;;;;;;15.15;7.40;;;;;;;;;;5034616;28;20070;-65
2024/02/17 04:20:43;;;;;;;12.25;7.03;;;;;;;;;;5032991;28;20044;-64
2024/02/17 04:23:09;;;;;;;14.43;7.53;;;;;;;;;;5038360;28;20040;-65
2024/02/17 04:25:35;;;;;;;14.65;8.18;;;;;;;;;;5038848;28;20520;-65
2024/02/17 04:28:04;;;;;;;12.05;6.80;;;;;;;;;;5040292;28;20402;-66
2024/02/17 04:30:30;;;;;;;13.90;6.75;;;;;;;;;;5033535;28;20049;-65
2024/02/17 04:32:58;;;;;;;15.07;6.90;;;;;;;;;;5032536;28;20052;-66
2024/02/17 04:35:24;;;;;;;21.90;10.50;;;;;;;;;;5033798;28;20072;-65
2024/02/17 04:37:51;;;;;;;18.65;8.52;;;;;;;;;;5031856;28;20052;-65
2024/02/17 04:40:17;;;;;;;13.65;7.35;;;;;;;;;;5032886;28;20069;-64
2024/02/17 04:42:43;;;;;;;13.85;7.85;;;;;;;;;;5035998;28;20540;-65
2024/02/17 04:45:10;;;;;;;15.40;7.50;;;;;;;;;;5032489;28;20060;-65
2024/02/17 04:47:37;;;;;;;12.10;6.45;;;;;;;;;;5035030;28;20049;-65
2024/02/17 04:50:03;;;;;;;12.48;7.38;;;;;;;;;;5040517;28;20050;-65
2024/02/17 04:52:30;;;;;;;12.63;7.00;;;;;;;;;;5033216;28;20425;-65
2024/02/17 04:54:56;;;;;;;10.18;6.05;;;;;;;;;;5029006;28;20038;-65
2024/02/17 04:57:22;;;;;;;9.80;6.07;;;;;;;;;;5028164;28;20053;-66
2024/02/17 04:59:48;;;;;;;11.18;7.13;;;;;;;;;;5024900;28;20052;-64
2024/02/17 05:02:14;;;;;;;11.73;6.68;;;;;;;;;;5030502;28;20037;-65
2024/02/17 05:04:40;;;;;;;12.25;7.22;;;;;;;;;;5041656;28;20607;-65
2024/02/17 05:07:06;;;;;;;13.18;7.55;;;;;;;;;;5030597;28;20053;-66
2024/02/17 05:09:32;;;;;;;13.95;8.32;;;;;;;;;;5031848;28;20532;-65
2024/02/17 05:11:59;;;;;;;14.90;7.88;;;;;;;;;;5031353;28;20052;-65
2024/02/17 05:14:25;;;;;;;12.65;7.63;;;;;;;;;;5039101;28;20044;-65
2024/02/17 05:16:51;;;;;;;11.65;6.90;;;;;;;;;;5036347;28;20035;-64
2024/02/17 05:19:17;;;;;;;11.27;6.07;;;;;;;;;;5033846;28;20049;-65
2024/02/17 05:21:43;;;;;;;10.77;6.72;;;;;;;;;;5042859;28;20056;-65
2024/02/17 05:24:10;;;;;;;11.10;6.70;;;;;;;;;;5042291;28;20033;-65
2024/02/17 05:26:38;;;;;;;12.10;8.20;;;;;;;;;;5038437;28;20049;-64
2024/02/17 05:29:07;;;;;;;11.48;6.90;;;;;;;;;;5032396;28;20054;-66
2024/02/17 05:31:34;;;;;;;10.18;6.40;;;;;;;;;;5040069;28;20107;-65
2024/02/17 05:34:01;;;;;;;11.30;6.28;;;;;;;;;;5029232;28;20091;-65
2024/02/17 05:36:27;;;;;;;11.65;6.47;;;;;;;;;;5028885;28;20052;-65
2024/02/17 05:38:54;;;;;;;13.15;6.90;;;;;;;;;;5027808;28;20041;-65
2024/02/17 05:41:21;;;;;;;12.77;7.32;;;;;;;;;;5035976;28;20048;-64
2024/02/17 05:43:47;;;;;;;9.68;6.25;;;;;;;;;;5028724;28;20412;-65
2024/02/17 05:46:13;;;;;;;12.50;6.65;;;;;;;;;;5034307;28;20056;-65
2024/02/17 05:48:39;;;;;;;13.10;6.43;;;;;;;;;;5038211;28;20516;-65
2024/02/17 05:51:05;;;;;;;12.40;6.93;;;;;;;;;;5038819;28;20056;-66
2024/02/17 05:53:31;;;;;;;10.02;5.95;;;;;;;;;;5035524;28;20056;-65
2024/02/17 05:55:57;;;;;;;11.88;6.65;;;;;;;;;;5037458;28;20051;-65
2024/02/17 05:58:24;;;;;;;13.95;6.70;;;;;;;;;;5036368;28;20045;-65
2024/02/17 06:00:50;;;;;;;10.48;5.55;;;;;;;;;;5036441;28;20033;-65
2024/02/17 06:03:16;;;;;;;10.52;5.80;;;;;;;;;;5035237;28;20033;-65
2024/02/17 06:05:44;;;;;;;9.18;5.43;;;;;;;;;;5031995;28;20033;-66
2024/02/17 06:08:10;;;;;;;9.52;5.55;;;;;;;;;;5035667;28;20052;-63
2024/02/17 06:10:36;;;;;;;10.40;6.25;;;;;;;;;;5037659;28;20049;-63
2024/02/17 06:13:02;;;;;;;11.02;5.65;;;;;;;;;;5033462;28;20048;-63
2024/02/17 06:15:28;;;;;;;11.93;6.32;;;;;;;;;;5031949;28;20049;-63
2024/02/17 06:23:25;;;;;;;11.38;5.75;;;;;;;;;;5036311;28;20037;-64
2024/02/17 06:25:51;;;;;;;13.02;7.15;;;;;;;;;;5031570;28;20053;-63
2024/02/17 06:28:17;;;;;;;22.92;11.63;;;;;;;;;;5040682;28;20072;-63
2024/02/17 06:30:43;;;;;;;20.95;10.80;;;;;;;;;;5037042;28;20036;-63
2024/02/17 06:33:09;;;;;;;18.95;10.18;;;;;;;;;;5042671;28;20507;-63
2024/02/17 06:35:35;;;;;;;20.48;10.88;;;;;;;;;;5043306;28;20484;-63
2024/02/17 06:38:01;;;;;;;20.10;10.65;;;;;;;;;;5033789;28;20037;-63
2024/02/17 06:40:27;;;;;;;21.15;10.38;;;;;;;;;;5036722;28;20046;-63
2024/02/17 06:42:54;;;;;;;21.65;10.52;;;;;;;;;;5036271;28;20033;-64
2024/02/17 06:45:20;;;;;;;21.65;11.13;;;;;;;;;;5036486;28;20032;-63
2024/02/17 06:47:46;;;;;;;21.85;10.90;;;;;;;;;;5035488;28;20055;-63
2024/02/17 06:50:13;;;;;;;23.15;10.90;;;;;;;;;;5036339;28;20059;-63
2024/02/17 06:52:40;;;;;;;20.42;10.30;;;;;;;;;;5039555;28;20500;-63
2024/02/17 06:55:08;;;;;;;25.98;11.50;;;;;;;;;;5030520;28;20068;-63
2024/02/17 06:57:34;;;;;;;22.02;10.98;;;;;;;;;;5028308;28;20037;-63
2024/02/17 07:00:00;;;;;;;20.90;10.88;;;;;;;;;;5037059;28;20057;-63
2024/02/17 07:02:26;;;;;;;21.13;10.50;;;;;;;;;;5025792;28;20041;-63
2024/02/17 07:04:53;;;;;;;23.35;11.40;;;;;;;;;;5039059;28;20043;-63
2024/02/17 07:07:19;;;;;;;24.65;11.35;;;;;;;;;;5036399;28;20633;-63
2024/02/17 07:09:45;;;;;;;21.20;11.20;;;;;;;;;;5028508;28;20052;-63
2024/02/17 07:12:11;;;;;;;23.10;11.30;;;;;;;;;;5033054;28;20040;-63
2024/02/17 07:14:40;;;;;;;21.75;11.50;;;;;;;;;;5031017;28;20049;-63
2024/02/17 07:17:06;;;;;;;25.38;11.15;;;;;;;;;;5027333;28;20409;-64
2024/02/17 07:19:33;;;;;;;24.48;12.13;;;;;;;;;;5033964;28;20045;-64
2024/02/17 07:21:59;;;;;;;23.50;12.15;;;;;;;;;;5035796;28;20032;-63
2024/02/17 07:24:27;;;;;;;23.67;11.55;;;;;;;;;;5034268;28;20040;-63
2024/02/17 07:26:53;;;;;;;26.08;12.25;;;;;;;;;;5026685;28;20038;-62
2024/02/17 07:29:19;;;;;;;26.70;12.00;;;;;;;;;;5033319;28;20056;-63
2024/02/17 07:31:45;;;;;;;30.42;13.38;;;;;;;;;;5034963;28;20036;-62
2024/02/17 07:34:12;;;;;;;24.42;11.88;;;;;;;;;;5032068;28;20033;-62
2024/02/17 07:36:38;;;;;;;26.27;13.02;;;;;;;;;;5028442;28;20052;-63
2024/02/17 07:39:05;;;;;;;32.58;13.98;;;;;;;;;;5038460;28;20045;-63
2024/02/17 07:41:31;;;;;;;27.70;13.02;;;;;;;;;;5039155;28;20029;-63
2024/02/17 07:43:57;;;;;;;31.40;13.80;;;;;;;;;;5042173;28;20052;-63
2024/02/17 07:46:25;;;;;;;34.17;14.93;;;;;;;;;;5042764;28;20037;-62
2024/02/17 07:48:52;;;;;;;30.13;13.77;;;;;;;;;;5037302;28;20041;-63
2024/02/17 07:51:18;;;;;;;29.02;13.23;;;;;;;;;;5038996;28;20053;-62
2024/02/17 07:53:44;;;;;;;30.33;13.10;;;;;;;;;;5036839;28;20040;-62
2024/02/17 07:56:10;;;;;;;30.33;13.40;;;;;;;;;;5031512;28;20045;-63
2024/02/17 07:58:36;;;;;;;34.28;14.13;;;;;;;;;;5054863;28;20046;-62
2024/02/17 08:01:03;;;;;;;28.17;12.77;;;;;;;;;;5034251;28;20047;-63
2024/02/17 08:03:29;;;;;;;29.20;13.07;;;;;;;;;;5034956;28;20060;-62
2024/02/17 08:05:55;;;;;;;32.45;13.48;;;;;;;;;;5031372;28;20041;-63
2024/02/17 08:08:21;;;;;;;30.77;13.85;;;;;;;;;;5030831;28;20046;-64
2024/02/17 08:10:47;;;;;;;31.90;13.77;;;;;;;;;;5026893;28;20057;-63
2024/02/17 08:13:14;;;;;;;29.67;13.45;;;;;;;;;;5025276;28;20050;-62
2024/02/17 08:15:40;;;;;;;27.92;12.65;;;;;;;;;;5036202;28;20064;-63
2024/02/17 08:18:07;;;;;;;29.23;13.30;;;;;;;;;;5037358;28;20049;-63
2024/02/17 08:20:33;;;;;;;28.83;13.52;;;;;;;;;;5037465;28;20037;-63
2024/02/17 08:22:59;;;;;;;27.83;12.13;;;;;;;;;;5035696;28;20052;-63
2024/02/17 08:25:26;;;;;;;29.60;13.45;;;;;;;;;;5029139;28;20033;-63
2024/02/17 08:27:52;;;;;;;34.22;14.07;;;;;;;;;;5029465;28;20052;-63
2024/02/17 08:30:18;;;;;;;29.88;13.30;;;;;;;;;;5029558;28;20049;-63
2024/02/17 08:32:46;;;;;;;30.85;13.25;;;;;;;;;;5031216;28;20052;-64
2024/02/17 08:35:12;;;;;;;27.23;13.00;;;;;;;;;;5029497;28;20041;-63
2024/02/17 08:37:38;;;;;;;29.70;13.95;;;;;;;;;;5028888;28;20056;-63
2024/02/17 08:40:05;;;;;;;33.55;14.45;;;;;;;;;;5026438;28;20040;-62
2024/02/17 08:42:31;;;;;;;30.92;14.45;;;;;;;;;;5032325;28;20038;-62
2024/02/17 08:44:57;;;;;;;34.30;14.23;;;;;;;;;;5035770;28;20041;-63
2024/02/17 08:47:23;;;;;;;32.25;14.15;;;;;;;;;;5038273;28;20413;-63
2024/02/17 08:49:50;;;;;;;34.28;15.02;;;;;;;;;;5034635;28;20032;-63
2024/02/17 08:52:16;;;;;;;37.75;17.70;;;;;;;;;;5038596;28;20050;-63
2024/02/17 08:54:42;;;;;;;39.80;16.92;;;;;;;;;;5039512;28;20040;-63
2024/02/17 08:57:08;;;;;;;31.38;14.20;;;;;;;;;;5039237;28;20427;-63
2024/02/17 08:59:36;;;;;;;32.25;13.65;;;;;;;;;;5037770;28;20034;-63
2024/02/17 09:02:03;;;;;;;40.60;17.50;;;;;;;;;;5038500;28;20390;-63
2024/02/17 09:04:29;;;;;;;38.83;16.10;;;;;;;;;;5037382;28;20037;-63
2024/02/17 09:06:55;;;;;;;37.42;16.98;;;;;;;;;;5037095;28;20393;-63
2024/02/17 09:09:22;;;;;;;33.15;15.05;;;;;;;;;;5049652;28;20535;-63
2024/02/17 09:11:49;;;;;;;37.63;17.70;;;;;;;;;;5037441;28;20435;-62
2024/02/17 09:14:15;;;;;;;38.97;17.23;;;;;;;;;;5039200;28;20044;-63
2024/02/17 09:16:41;;;;;;;34.40;15.38;;;;;;;;;;5039981;28;20393;-62
2024/02/17 09:19:07;;;;;;;31.08;14.10;;;;;;;;;;5020172;28;20038;-62
2024/02/17 09:21:34;;;;;;;30.65;13.68;;;;;;;;;;5037879;28;20045;-62
2024/02/17 09:24:00;;;;;;;31.20;13.63;;;;;;;;;;5035785;28;20036;-62
2024/02/17 09:26:26;;;;;;;16.95;6.38;;;;;;;;;;5033398;28;20056;-63
2024/02/17 09:28:52;;;;;;;20.52;9.18;;;;;;;;;;5034843;28;20465;-63
2024/02/17 09:31:18;;;;;;;33.20;14.60;;;;;;;;;;5026584;28;20044;-62
2024/02/17 09:33:44;;;;;;;31.30;14.02;;;;;;;;;;5030962;28;20550;-62
2024/02/17 09:36:10;;;;;;;30.25;14.10;;;;;;;;;;5026253;28;20029;-63
2024/02/17 09:38:36;;;;;;;29.38;13.30;;;;;;;;;;5023599;28;20045;-64
2024/02/17 09:41:03;;;;;;;30.13;14.38;;;;;;;;;;5025951;28;20037;-62
2024/02/17 09:43:30;;;;;;;29.92;14.07;;;;;;;;;;5028904;28;20044;-63
2024/02/17 09:45:56;;;;;;;32.75;14.20;;;;;;;;;;5038594;28;20037;-62
2024/02/17 09:48:24;;;;;;;26.23;12.45;;;;;;;;;;5031637;28;20037;-63
2024/02/17 09:50:53;;;;;;;26.63;12.40;;;;;;;;;;5031711;28;20409;-63
2024/02/17 09:53:20;;;;;;;24.48;11.88;;;;;;;;;;5027433;28;20052;-63
2024/02/17 09:55:48;;;;;;;24.05;12.00;;;;;;;;;;5033866;28;20037;-63
2024/02/17 09:58:14;;;;;;;22.58;11.30;;;;;;;;;;5027816;28;20045;-62
2024/02/17 10:00:41;;;;;;;23.13;11.52;;;;;;;;;;5037379;28;20092;-62
2024/02/17 10:03:07;;;;;;;24.50;11.77;;;;;;;;;;5036357;28;20053;-62
2024/02/17 10:05:34;;;;;;;26.27;13.38;;;;;;;;;;5035638;28;20033;-63
2024/02/17 10:08:03;;;;;;;25.23;13.13;;;;;;;;;;5032753;28;20044;-62
2024/02/17 10:10:29;;;;;;;28.02;12.80;;;;;;;;;;5035095;28;20520;-63
2024/02/17 10:12:57;;;;;;;25.02;12.20;;;;;;;;;;5037485;28;20053;-63
2024/02/17 10:15:24;;;;;;;22.85;11.65;;;;;;;;;;5037192;28;20045;-62
2024/02/17 10:17:53;;;;;;;25.95;12.70;;;;;;;;;;5034984;28;20049;-63
2024/02/17 10:20:20;;;;;;;24.10;11.65;;;;;;;;;;5025906;28;20509;-63
2024/02/17 10:22:46;;;;;;;20.88;10.77;;;;;;;;;;5030990;28;20033;-63
2024/02/17 10:25:13;;;;;;;22.58;11.63;;;;;;;;;;5059582;28;20037;-63
2024/02/17 10:27:41;;;;;;;22.25;12.00;;;;;;;;;;5035019;28;20036;-63
2024/02/17 10:30:08;;;;;;;21.65;11.05;;;;;;;;;;5035085;28;20044;-63
2024/02/17 10:32:34;;;;;;;22.63;11.52;;;;;;;;;;5034838;28;20037;-63
2024/02/17 10:35:05;;;;;;;19.92;11.20;;;;;;;;;;5033681;28;20052;-62
2024/02/17 10:37:32;;;;;;;20.85;10.60;;;;;;;;;;5031197;28;20053;-66
2024/02/17 10:40:03;;;;;;;19.83;10.70;;;;;;;;;;5031162;28;20377;-63
2024/02/17 10:42:30;;;;;;;19.13;10.77;;;;;;;;;;5031860;28;20416;-63
2024/02/17 10:45:00;;;;;;;24.05;11.77;;;;;;;;;;5041691;28;20037;-63
2024/02/17 10:47:28;;;;;;;19.80;10.93;;;;;;;;;;5036693;28;20057;-63
2024/02/17 10:50:12;;;;;;;17.80;10.20;;;;;;;;;;5040648;28;20044;-60
2024/02/17 10:52:44;;;;;;;17.90;10.27;;;;;;;;;;5044378;28;20061;-61
2024/02/17 10:55:13;;;;;;;18.05;9.68;;;;;;;;;;5035215;28;20037;-61
2024/02/17 10:57:48;;;;;;;14.65;8.45;;;;;;;;;;5032653;28;20038;-61
2024/02/17 11:00:15;;;;;;;14.35;8.55;;;;;;;;;;5039853;28;20045;-61
2024/02/17 11:02:43;;;;;;;15.48;8.82;;;;;;;;;;5031872;28;20038;-60
2024/02/17 11:05:09;;;;;;;15.27;7.97;;;;;;;;;;5032349;28;20072;-61
2024/02/17 11:07:35;;;;;;;15.18;7.57;;;;;;;;;;5040184;28;20049;-61
2024/02/17 11:10:06;;;;;;;13.85;7.68;;;;;;;;;;5029633;28;20052;-61
2024/02/17 11:12:34;;;;;;;196.38;55.13;;;;;;;;;;5018354;28;20457;-62
2024/02/17 11:15:11;;;;;;;115.05;34.40;;;;;;;;;;5022954;28;20045;-61
2024/02/17 11:17:44;;;;;;;80.18;24.75;;;;;;;;;;5025792;28;20041;-61
2024/02/17 11:20:15;;;;;;;65.97;19.65;;;;;;;;;;5030649;28;20037;-61
2024/02/17 11:22:44;;;;;;;35.60;13.82;;;;;;;;;;5026951;28;20406;-61
2024/02/17 11:25:11;;;;;;;23.45;10.27;;;;;;;;;;5028562;28;20053;-63
2024/02/17 11:27:41;;;;;;;19.85;9.23;;;;;;;;;;5021911;28;20041;-65
2024/02/17 11:30:08;;;;;;;13.70;7.10;;;;;;;;;;5036771;28;20060;-64
2024/02/17 11:32:38;;;;;;;16.13;7.40;;;;;;;;;;5030527;28;20033;-63
2024/02/17 11:35:07;;;;;;;17.23;7.68;;;;;;;;;;5041301;28;20059;-63
2024/02/17 11:37:35;;;;;;;14.63;6.37;;;;;;;;;;5024537;28;20041;-63
2024/02/17 11:40:02;;;;;;;11.77;7.50;;;;;;;;;;5027249;28;20287;-64
2024/02/17 11:42:29;;;;;;;16.17;6.93;;;;;;;;;;5031747;28;20052;-62
2024/02/17 11:44:56;;;;;;;12.60;6.15;;;;;;;;;;5029548;28;20049;-63
2024/02/17 11:47:22;;;;;;;12.85;6.25;;;;;;;;;;5030832;28;20044;-62
2024/02/17 11:49:50;;;;;;;13.45;7.13;;;;;;;;;;5029461;28;20037;-62
2024/02/17 11:52:20;;;;;;;10.98;6.60;;;;;;;;;;5028425;28;20049;-62
2024/02/17 11:54:46;;;;;;;11.25;6.32;;;;;;;;;;5028463;28;20048;-62
2024/02/17 11:57:16;;;;;;;9.20;6.53;;;;;;;;;;5034606;28;20044;-62
2024/02/17 11:59:46;;;;;;;14.95;9.25;;;;;;;;;;5037668;28;20033;-59
2024/02/17 12:02:14;;;;;;;12.25;8.32;;;;;;;;;;5030391;28;20053;-59
2024/02/17 12:04:40;;;;;;;11.77;8.77;;;;;;;;;;5031640;28;20045;-59
2024/02/17 12:07:06;;;;;;;13.70;9.13;;;;;;;;;;5022842;28;20401;-60
2024/02/17 12:09:32;;;;;;;15.15;9.20;;;;;;;;;;5031386;28;20053;-60
2024/02/17 12:11:59;;;;;;;12.48;8.20;;;;;;;;;;5029599;28;20405;-60
2024/02/17 12:14:25;;;;;;;12.90;7.78;;;;;;;;;;5026535;28;20041;-61
2024/02/17 12:16:51;;;;;;;10.63;7.30;;;;;;;;;;5027400;28;20576;-61
2024/02/17 12:19:17;;;;;;;12.20;7.50;;;;;;;;;;5031825;28;20041;-61
2024/02/17 12:21:44;;;;;;;12.13;7.70;;;;;;;;;;5034275;28;20056;-61
2024/02/17 12:24:11;;;;;;;10.93;6.93;;;;;;;;;;5025697;28;20433;-60
2024/02/17 12:26:37;;;;;;;12.90;7.72;;;;;;;;;;5025129;28;20064;-61
2024/02/17 12:29:04;;;;;;;11.43;6.78;;;;;;;;;;5024471;28;20064;-62
2024/02/17 12:31:31;;;;;;;8.90;6.30;;;;;;;;;;5034629;28;20036;-60
2024/02/17 12:33:58;;;;;;;9.73;6.00;;;;;;;;;;5031841;28;20052;-61
2024/02/17 12:36:24;;;;;;;7.80;5.57;;;;;;;;;;5037040;28;20049;-60
2024/02/17 12:39:00;;;;;;;7.30;5.80;;;;;;;;;;5043030;28;20040;-61
2024/02/17 12:41:29;;;;;;;9.77;5.97;;;;;;;;;;5040968;28;20044;-60
2024/02/17 12:43:55;;;;;;;7.93;4.30;;;;;;;;;;5038427;28;20309;-61
2024/02/17 12:46:23;;;;;;;5.32;4.28;;;;;;;;;;5034854;28;20052;-61
2024/02/17 12:48:50;;;;;;;6.20;4.30;;;;;;;;;;5038126;28;20480;-62
2024/02/17 12:51:20;;;;;;;5.18;4.03;;;;;;;;;;5039049;28;20303;-60
2024/02/17 12:53:47;;;;;;;6.60;4.10;;;;;;;;;;5030942;28;20047;-61
2024/02/17 12:56:14;;;;;;;5.78;3.65;;;;;;;;;;5039183;28;20077;-62
2024/02/17 12:58:41;;;;;;;6.07;4.43;;;;;;;;;;5037778;28;20040;-61
2024/02/17 13:01:07;;;;;;;4.85;4.00;;;;;;;;;;5025965;28;20040;-62
2024/02/17 13:03:37;;;;;;;6.63;4.00;;;;;;;;;;5033651;28;20409;-61
2024/02/17 13:06:06;;;;;;;6.35;3.72;;;;;;;;;;5027202;28;20384;-63
2024/02/17 13:08:32;;;;;;;4.20;3.30;;;;;;;;;;5034875;28;20042;-62
2024/02/17 13:10:59;;;;;;;4.85;3.20;;;;;;;;;;5040271;28;20048;-60
2024/02/17 13:13:26;;;;;;;4.88;3.47;;;;;;;;;;5034480;28;20068;-61
2024/02/17 13:15:53;;;;;;;6.65;4.20;;;;;;;;;;5036660;28;20045;-61
2024/02/17 13:18:19;;;;;;;5.13;3.90;;;;;;;;;;5031842;28;20053;-61
2024/02/17 13:20:45;;;;;;;13.57;4.18;;;;;;;;;;5032783;28;20112;-61
2024/02/17 13:23:11;;;;;;;7.03;4.05;;;;;;;;;;5031251;28;20045;-61
2024/02/17 13:25:37;;;;;;;6.00;3.42;;;;;;;;;;5032896;28;20041;-59
2024/02/17 13:28:04;;;;;;;5.35;3.10;;;;;;;;;;5030995;28;20049;-60
2024/02/17 13:30:30;;;;;;;5.97;3.90;;;;;;;;;;5029831;28;20042;-62
2024/02/17 13:32:56;;;;;;;6.82;3.65;;;;;;;;;;5031668;28;20044;-61
2024/02/17 13:35:24;;;;;;;5.68;3.92;;;;;;;;;;5024899;28;20045;-61
2024/02/17 13:37:51;;;;;;;6.78;4.10;;;;;;;;;;5031798;28;20041;-60
2024/02/17 13:40:17;;;;;;;4.38;3.80;;;;;;;;;;5029416;28;20037;-60
2024/02/17 13:42:45;;;;;;;5.65;3.50;;;;;;;;;;5037994;28;20056;-63
2024/02/17 13:45:12;;;;;;;6.00;3.78;;;;;;;;;;5026623;28;20044;-62
2024/02/17 13:47:39;;;;;;;5.00;3.53;;;;;;;;;;5026961;28;20053;-61
2024/02/17 13:50:10;;;;;;;5.93;4.20;;;;;;;;;;5022817;28;20044;-62
2024/02/17 13:52:37;;;;;;;8.10;5.20;;;;;;;;;;5022432;28;20124;-63
2024/02/17 13:55:03;;;;;;;7.93;4.30;;;;;;;;;;5028007;28;20060;-61
2024/02/17 13:57:33;;;;;;;5.93;3.80;;;;;;;;;;5034957;28;20064;-61
2024/02/17 14:00:01;;;;;;;5.47;3.70;;;;;;;;;;5033163;28;20044;-60
2024/02/17 14:02:28;;;;;;;6.30;4.00;;;;;;;;;;5025369;28;20041;-62
2024/02/17 14:04:58;;;;;;;6.90;3.50;;;;;;;;;;5030137;28;20063;-60
2024/02/17 14:07:25;;;;;;;4.90;3.05;;;;;;;;;;5035502;28;20501;-60
2024/02/17 14:09:52;;;;;;;5.97;2.90;;;;;;;;;;5035387;28;20037;-62
2024/02/17 14:12:19;;;;;;;5.93;2.65;;;;;;;;;;5033873;28;21298;-61
2024/02/17 14:14:46;;;;;;;6.60;2.80;;;;;;;;;;5031499;28;20053;-62
2024/02/17 14:17:13;;;;;;;4.88;3.00;;;;;;;;;;5031939;28;20061;-61
2024/02/17 14:19:39;;;;;;;4.72;2.83;;;;;;;;;;5031411;28;20622;-62
2024/02/17 14:22:13;;;;;;;5.85;2.30;;;;;;;;;;5037719;28;20543;-61
2024/02/17 14:24:39;;;;;;;3.42;2.47;;;;;;;;;;5034439;28;20128;-61
2024/02/17 14:27:06;;;;;;;4.70;2.80;;;;;;;;;;5035696;28;20049;-59
2024/02/17 14:29:36;;;;;;;4.38;3.20;;;;;;;;;;5032704;28;20041;-61
2024/02/17 14:32:04;;;;;;;5.03;2.90;;;;;;;;;;5034086;28;20053;-60
2024/02/17 14:34:30;;;;;;;4.15;2.70;;;;;;;;;;5043295;28;20045;-61